Aviation Digital Data Service (ADDS)

Output produced by METARs form (1025 UTC 02 October 2014)
found at http://aviationweather.gov/adds/metars/
 
KDEN 020901Z 0209/0312 25008KT P6SM BKN120 
     FM021100 22006KT P6SM SCT120 
     FM021600 23008KT P6SM FEW120 SCT200 
     FM022000 31006KT P6SM FEW090 SCT120 
     FM030400 01012KT P6SM SCT070 BKN120 
     FM030800 03008KT P6SM VCSH SCT025 BKN050 OVC070